Time;durP1;ratioP1;P1;durP2;ratioP2;P2;SDS_P1;SDS_P2;PMS_P1;PMS_P2;Temp;Humidity;BMP_temperature;BMP_pressure;BME280_temperature;BME280_humidity;BME280_pressure;Samples;Min_cycle;Max_cycle;Signal;HPM_P1;HPM_P2
2022/01/29 00:01:34;;;;;;;9.77;6.77;;;9.70;51.80;;;;;;4981884;28;20195;-44
2022/01/29 00:04:00;;;;;;;9.03;7.03;;;9.70;51.80;;;;;;4972062;28;20207;-44
2022/01/29 00:06:25;;;;;;;18.03;8.10;;;9.60;52.00;;;;;;4967051;28;20264;-44
2022/01/29 00:08:54;;;;;;;8.20;6.10;;;9.50;52.50;;;;;;4976929;28;20355;-44
2022/01/29 00:11:20;;;;;;;8.53;6.63;;;9.50;52.50;;;;;;4969396;28;20195;-45
2022/01/29 00:13:45;;;;;;;8.87;7.53;;;9.60;52.40;;;;;;4968622;28;20563;-45
2022/01/29 00:16:11;;;;;;;9.63;7.00;;;9.60;52.10;;;;;;4971956;28;20526;-44
2022/01/29 00:18:37;;;;;;;10.60;7.53;;;9.60;52.70;;;;;;4969890;28;20197;-44
2022/01/29 00:21:03;;;;;;;9.27;7.27;;;9.60;52.10;;;;;;4970097;28;20238;-44
2022/01/29 00:23:28;;;;;;;10.87;7.87;;;9.60;52.10;;;;;;4967356;28;20202;-43
2022/01/29 00:25:54;;;;;;;10.70;6.70;;;9.60;52.00;;;;;;4969447;28;20235;-44
2022/01/29 00:28:20;;;;;;;10.47;7.43;;;9.70;52.20;;;;;;4967947;28;20656;-43
2022/01/29 00:30:48;;;;;;;11.73;7.53;;;9.60;52.10;;;;;;4968864;28;20651;-44
2022/01/29 00:33:15;;;;;;;9.17;6.90;;;9.60;52.40;;;;;;4968431;28;20203;-45
2022/01/29 00:35:41;;;;;;;14.33;7.40;;;9.60;52.60;;;;;;4966618;28;20978;-44
2022/01/29 00:38:06;;;;;;;13.93;7.40;;;9.50;52.50;;;;;;4970042;28;20502;-45
2022/01/29 00:40:33;;;;;;;10.93;6.73;;;9.50;52.80;;;;;;4975057;28;20270;-45
2022/01/29 00:42:59;;;;;;;9.37;6.53;;;9.60;52.70;;;;;;4972561;28;20203;-45
2022/01/29 00:45:26;;;;;;;12.83;8.17;;;9.60;52.50;;;;;;4973672;28;20501;-44
2022/01/29 00:47:51;;;;;;;12.63;7.00;;;9.70;52.40;;;;;;4970299;28;20451;-45
2022/01/29 00:50:17;;;;;;;8.13;7.23;;;9.70;52.20;;;;;;4974802;28;20559;-45
2022/01/29 00:52:43;;;;;;;7.77;6.97;;;9.70;52.10;;;;;;4972205;28;20601;-45
2022/01/29 00:55:10;;;;;;;9.07;6.90;;;9.70;52.10;;;;;;4972605;28;20230;-46
2022/01/29 00:57:39;;;;;;;8.50;6.73;;;9.70;52.30;;;;;;4972104;28;20195;-45
2022/01/29 01:00:10;;;;;;;9.50;7.57;;;9.70;52.30;;;;;;4969483;28;20464;-44
2022/01/29 01:02:36;;;;;;;9.23;6.80;;;9.70;52.60;;;;;;4971566;28;20501;-45
2022/01/29 01:05:02;;;;;;;9.73;7.10;;;9.70;52.50;;;;;;4970787;28;20450;-44
2022/01/29 01:07:28;;;;;;;9.77;7.20;;;9.70;52.40;;;;;;4969665;28;20868;-44
2022/01/29 01:09:53;;;;;;;8.20;6.33;;;9.40;52.90;;;;;;4972127;28;20489;-44
2022/01/29 01:12:19;;;;;;;9.57;7.67;;;9.50;53.10;;;;;;4975498;28;20195;-46
2022/01/29 01:14:45;;;;;;;9.40;7.20;;;9.50;53.00;;;;;;4973636;28;20223;-44
2022/01/29 01:17:10;;;;;;;9.47;6.97;;;9.60;53.00;;;;;;4973932;28;20198;-45
2022/01/29 01:19:36;;;;;;;11.00;6.20;;;9.60;53.00;;;;;;4973844;28;20571;-44
2022/01/29 01:22:01;;;;;;;8.23;5.77;;;9.50;52.80;;;;;;4971681;28;20200;-45
2022/01/29 01:24:27;;;;;;;10.53;6.73;;;9.40;52.90;;;;;;4971621;28;20612;-44
2022/01/29 01:26:55;;;;;;;13.57;6.37;;;9.40;53.30;;;;;;4974583;28;20223;-45
2022/01/29 01:29:21;;;;;;;8.10;6.00;;;9.50;53.40;;;;;;4967681;28;20241;-44
2022/01/29 01:31:47;;;;;;;8.43;6.57;;;9.50;53.50;;;;;;4972268;28;20470;-45
2022/01/29 01:34:14;;;;;;;9.00;6.07;;;9.60;53.40;;;;;;4974081;28;20671;-44
2022/01/29 01:36:47;;;;;;;8.83;6.50;;;9.50;53.20;;;;;;4972108;28;20309;-44
2022/01/29 01:39:16;;;;;;;8.90;5.83;;;9.50;53.20;;;;;;4970197;28;20497;-45
2022/01/29 01:41:52;;;;;;;11.10;6.10;;;9.60;53.20;;;;;;4974975;28;20486;-44
2022/01/29 01:44:17;;;;;;;6.47;5.83;;;9.70;53.10;;;;;;4970208;28;20781;-44
2022/01/29 01:46:43;;;;;;;9.27;6.13;;;9.70;52.80;;;;;;4970491;28;20458;-45
2022/01/29 01:49:09;;;;;;;9.10;6.73;;;9.70;53.00;;;;;;4972092;28;20223;-44
2022/01/29 01:51:35;;;;;;;10.10;7.03;;;9.70;52.80;;;;;;4972980;28;20466;-45
2022/01/29 01:54:01;;;;;;;9.10;7.10;;;9.70;53.20;;;;;;4968014;28;20215;-46
2022/01/29 01:56:27;;;;;;;8.40;6.70;;;9.70;53.20;;;;;;4972712;28;20450;-45
2022/01/29 01:58:56;;;;;;;9.00;6.77;;;9.70;53.40;;;;;;4973378;28;20445;-44
2022/01/29 02:01:22;;;;;;;10.40;7.43;;;9.70;53.60;;;;;;4973246;28;20199;-45
2022/01/29 02:03:48;;;;;;;9.13;6.40;;;9.70;53.40;;;;;;4967647;28;20473;-45
2022/01/29 02:06:14;;;;;;;12.80;7.17;;;9.70;53.40;;;;;;4972772;28;20198;-45
2022/01/29 02:08:40;;;;;;;10.60;8.33;;;9.70;53.50;;;;;;4969687;28;20191;-44
2022/01/29 02:11:06;;;;;;;9.63;6.90;;;9.70;53.40;;;;;;4970791;28;20449;-44
2022/01/29 02:13:33;;;;;;;13.80;8.63;;;9.70;53.50;;;;;;4970128;28;20210;-45
2022/01/29 02:16:01;;;;;;;12.07;7.97;;;9.70;53.70;;;;;;4973459;28;20491;-45
2022/01/29 02:18:26;;;;;;;10.07;6.93;;;9.60;53.70;;;;;;4971296;28;20454;-45
2022/01/29 02:20:52;;;;;;;11.67;7.87;;;9.60;53.60;;;;;;4968085;28;20442;-45
2022/01/29 02:23:18;;;;;;;8.93;7.50;;;9.60;53.70;;;;;;4973143;28;20222;-44
2022/01/29 02:25:46;;;;;;;11.43;8.47;;;9.60;53.60;;;;;;4971379;28;20191;-44
2022/01/29 02:28:14;;;;;;;10.00;8.03;;;9.60;53.50;;;;;;4963489;28;20633;-45
2022/01/29 02:30:42;;;;;;;10.60;7.80;;;9.50;53.50;;;;;;4970725;28;20486;-45
2022/01/29 02:33:11;;;;;;;9.70;7.90;;;9.50;53.40;;;;;;4971483;28;20477;-44
2022/01/29 02:35:48;;;;;;;10.90;7.83;;;9.50;53.50;;;;;;4973153;28;20493;-45
2022/01/29 02:38:17;;;;;;;10.67;8.10;;;9.50;53.40;;;;;;4969596;28;20981;-45
2022/01/29 02:40:51;;;;;;;10.67;8.03;;;9.50;53.40;;;;;;4970772;28;20480;-45
2022/01/29 02:43:20;;;;;;;11.13;7.77;;;9.50;53.70;;;;;;4969875;28;20513;-45
2022/01/29 02:45:46;;;;;;;12.00;7.60;;;9.50;53.80;;;;;;4970819;28;20451;-45
2022/01/29 02:48:13;;;;;;;11.73;8.47;;;9.40;53.60;;;;;;4969605;28;20446;-46
2022/01/29 02:50:39;;;;;;;9.13;7.10;;;9.40;53.60;;;;;;4968740;28;20434;-46
2022/01/29 02:53:05;;;;;;;11.27;7.70;;;9.40;53.60;;;;;;4970744;28;20450;-44
2022/01/29 02:55:31;;;;;;;10.27;8.27;;;9.40;53.70;;;;;;4969921;28;20501;-45
2022/01/29 02:57:57;;;;;;;9.77;7.90;;;9.30;53.80;;;;;;4971481;28;20453;-44
2022/01/29 03:00:24;;;;;;;10.57;7.77;;;9.30;53.80;;;;;;4968110;28;20201;-44
2022/01/29 03:02:49;;;;;;;10.17;8.17;;;9.30;53.80;;;;;;4970737;28;20807;-45
2022/01/29 03:05:15;;;;;;;12.23;8.80;;;9.30;54.00;;;;;;4969325;28;20446;-45
2022/01/29 03:07:41;;;;;;;11.97;9.03;;;9.30;53.90;;;;;;4970126;28;20306;-45
2022/01/29 03:10:07;;;;;;;11.37;8.50;;;9.30;54.00;;;;;;4972889;28;20196;-44
2022/01/29 03:12:33;;;;;;;8.00;7.13;;;9.30;54.10;;;;;;4971955;28;20631;-45
2022/01/29 03:14:59;;;;;;;11.90;8.63;;;9.30;54.10;;;;;;4971555;28;20498;-44
2022/01/29 03:17:24;;;;;;;10.40;7.80;;;9.30;54.00;;;;;;4969162;28;20449;-45
2022/01/29 03:19:52;;;;;;;9.97;7.70;;;9.30;54.20;;;;;;4972692;28;20290;-44
2022/01/29 03:22:18;;;;;;;12.87;8.00;;;9.20;54.30;;;;;;4973548;28;20199;-46
2022/01/29 03:24:44;;;;;;;12.70;8.50;;;9.20;54.30;;;;;;4970913;28;20846;-45
2022/01/29 03:27:10;;;;;;;10.40;8.37;;;9.20;54.40;;;;;;4969011;28;21005;-48
2022/01/29 03:29:35;;;;;;;11.53;8.50;;;9.20;54.30;;;;;;4973711;28;20449;-44
2022/01/29 03:32:01;;;;;;;10.10;8.03;;;9.20;54.40;;;;;;4966879;28;20278;-44
2022/01/29 03:34:26;;;;;;;11.50;7.93;;;9.20;54.40;;;;;;4972139;28;20226;-45
2022/01/29 03:36:55;;;;;;;11.73;8.10;;;9.20;54.50;;;;;;4970496;28;20551;-44
2022/01/29 03:39:21;;;;;;;12.97;8.70;;;9.10;54.60;;;;;;4969513;28;20227;-45
2022/01/29 03:41:46;;;;;;;11.00;8.43;;;9.20;54.70;;;;;;4972312;28;20482;-45
2022/01/29 03:44:12;;;;;;;9.20;7.90;;;9.10;54.60;;;;;;4966614;28;20557;-44
2022/01/29 03:46:38;;;;;;;13.80;9.30;;;9.10;54.60;;;;;;4967536;28;20190;-44
2022/01/29 03:49:03;;;;;;;13.00;9.10;;;9.10;54.70;;;;;;4970620;28;20639;-45
2022/01/29 03:51:29;;;;;;;9.93;8.67;;;9.10;54.70;;;;;;4968674;28;20286;-44
2022/01/29 03:53:54;;;;;;;13.07;8.97;;;9.10;54.60;;;;;;4970797;28;20219;-44
2022/01/29 03:56:20;;;;;;;13.20;9.40;;;9.10;54.60;;;;;;4971919;28;20231;-44
2022/01/29 03:58:46;;;;;;;11.77;9.20;;;9.10;54.70;;;;;;4972264;28;20767;-45
2022/01/29 04:01:11;;;;;;;13.90;8.60;;;9.00;54.70;;;;;;4973411;28;20218;-45
2022/01/29 04:03:37;;;;;;;11.63;9.40;;;9.10;54.90;;;;;;4976890;28;20198;-44
2022/01/29 04:06:02;;;;;;;15.57;10.27;;;9.10;55.00;;;;;;4971677;28;20210;-45
2022/01/29 04:08:28;;;;;;;13.57;9.70;;;9.10;55.00;;;;;;4971730;28;20249;-44
2022/01/29 04:10:54;;;;;;;15.40;10.13;;;9.10;55.00;;;;;;4972268;28;20274;-45
2022/01/29 04:13:25;;;;;;;17.37;9.70;;;9.10;55.00;;;;;;4970680;28;20255;-46
2022/01/29 04:15:51;;;;;;;10.33;8.63;;;9.10;55.10;;;;;;4975836;28;20318;-45
2022/01/29 04:18:18;;;;;;;15.83;9.10;;;9.10;55.20;;;;;;4971147;28;20514;-45
2022/01/29 04:20:44;;;;;;;13.03;9.13;;;9.10;55.40;;;;;;4971603;28;20202;-45
2022/01/29 04:23:10;;;;;;;12.63;10.00;;;9.10;55.20;;;;;;4970907;28;20501;-45
2022/01/29 04:25:36;;;;;;;13.17;9.30;;;9.10;55.20;;;;;;4971064;28;20482;-44
2022/01/29 04:28:03;;;;;;;13.63;10.17;;;9.10;55.10;;;;;;4973129;28;20523;-44
2022/01/29 04:30:39;;;;;;;12.63;8.47;;;9.10;55.20;;;;;;4974057;28;20234;-44
2022/01/29 04:35:43;;;;;;;13.60;9.43;;;9.00;55.30;;;;;;4971472;28;20533;-45
2022/01/29 04:38:09;;;;;;;13.60;9.40;;;9.00;55.30;;;;;;4970762;28;20477;-46
2022/01/29 04:40:35;;;;;;;13.37;9.40;;;9.00;55.30;;;;;;4973261;28;20239;-46
2022/01/29 04:43:02;;;;;;;13.93;9.97;;;9.00;55.30;;;;;;4963659;28;20207;-45
2022/01/29 04:45:28;;;;;;;13.00;9.00;;;9.00;55.30;;;;;;4969661;28;20497;-45
2022/01/29 04:47:53;;;;;;;12.77;9.17;;;9.00;55.30;;;;;;4970997;28;20435;-44
2022/01/29 04:50:19;;;;;;;12.40;8.13;;;9.00;55.30;;;;;;4971842;28;20191;-45
2022/01/29 04:52:44;;;;;;;14.80;9.23;;;9.00;55.30;;;;;;4971276;28;20195;-45
2022/01/29 04:55:10;;;;;;;15.10;10.00;;;9.00;55.60;;;;;;4966305;28;20231;-45
2022/01/29 04:57:37;;;;;;;12.00;9.00;;;9.00;55.80;;;;;;4963557;28;20196;-44
2022/01/29 05:00:07;;;;;;;13.30;9.03;;;9.00;55.80;;;;;;4964996;28;20703;-45
2022/01/29 05:02:34;;;;;;;13.20;9.03;;;8.90;55.90;;;;;;4966890;28;20442;-45
2022/01/29 05:05:00;;;;;;;13.63;9.10;;;8.90;55.90;;;;;;4970364;28;20454;-44
2022/01/29 05:07:25;;;;;;;15.60;9.87;;;9.00;55.90;;;;;;4963307;28;20550;-44
2022/01/29 05:09:51;;;;;;;11.13;8.93;;;9.00;55.80;;;;;;4962618;28;20286;-44
2022/01/29 05:12:23;;;;;;;12.73;9.00;;;9.00;55.80;;;;;;4965849;28;20683;-45
2022/01/29 05:15:18;;;;;;;12.10;9.30;;;9.00;55.80;;;;;;4970252;28;20222;-46
2022/01/29 05:28:31;;;;;;;11.87;9.47;;;8.90;56.00;;;;;;4970392;28;20453;-45
2022/01/29 05:30:57;;;;;;;14.30;9.73;;;8.90;56.20;;;;;;4973340;28;20833;-45
2022/01/29 05:33:23;;;;;;;10.13;8.73;;;8.90;56.20;;;;;;4972530;28;20305;-45
2022/01/29 05:35:48;;;;;;;16.40;11.67;;;8.90;56.50;;;;;;4974866;28;20556;-44
2022/01/29 05:38:14;;;;;;;14.53;10.70;;;8.90;56.40;;;;;;4970830;28;20191;-46
2022/01/29 05:40:40;;;;;;;15.30;10.53;;;8.90;56.40;;;;;;4971226;28;21024;-45
2022/01/29 05:43:05;;;;;;;13.80;10.30;;;8.90;56.50;;;;;;4970089;28;20209;-44
2022/01/29 05:45:31;;;;;;;16.40;10.70;;;8.90;56.60;;;;;;4974115;28;20609;-44
2022/01/29 05:47:56;;;;;;;18.70;11.53;;;8.80;56.70;;;;;;4970077;28;20206;-45
2022/01/29 05:50:22;;;;;;;17.73;12.30;;;8.70;57.20;;;;;;4971213;28;20318;-45
2022/01/29 05:52:47;;;;;;;15.53;11.47;;;8.60;57.40;;;;;;4970111;28;20206;-45
2022/01/29 05:55:13;;;;;;;18.00;12.03;;;8.60;57.70;;;;;;4968515;28;20657;-45
2022/01/29 05:57:38;;;;;;;16.63;11.40;;;8.60;57.70;;;;;;4971220;28;20195;-45
2022/01/29 06:00:05;;;;;;;13.57;10.90;;;8.60;57.80;;;;;;4976480;28;20274;-46
2022/01/29 06:02:31;;;;;;;14.43;11.43;;;8.70;57.60;;;;;;4968454;28;20229;-44
2022/01/29 06:04:57;;;;;;;15.93;10.60;;;8.80;57.30;;;;;;4966507;28;20482;-44
2022/01/29 06:07:22;;;;;;;17.93;12.93;;;8.80;57.00;;;;;;4971061;28;20202;-44
2022/01/29 06:09:48;;;;;;;16.60;11.83;;;8.90;57.00;;;;;;4975464;28;20203;-44
2022/01/29 06:12:13;;;;;;;17.10;12.07;;;8.90;56.90;;;;;;4970860;28;20566;-46
2022/01/29 06:14:39;;;;;;;16.70;14.10;;;8.90;56.70;;;;;;4968723;28;20286;-44
2022/01/29 06:17:05;;;;;;;14.20;12.03;;;8.80;57.20;;;;;;4970735;28;20278;-44
2022/01/29 06:19:31;;;;;;;15.20;11.90;;;8.70;57.10;;;;;;4972579;28;20457;-44
2022/01/29 06:21:57;;;;;;;17.73;12.73;;;8.60;57.40;;;;;;4971035;28;20461;-46
2022/01/29 06:24:22;;;;;;;17.50;12.50;;;8.60;57.50;;;;;;4971774;28;20198;-44
2022/01/29 06:26:48;;;;;;;16.40;12.90;;;8.50;57.90;;;;;;4970931;28;20203;-44
2022/01/29 06:29:14;;;;;;;15.90;12.33;;;8.50;58.00;;;;;;4972460;28;20206;-45
2022/01/29 06:31:39;;;;;;;20.40;12.77;;;8.60;57.60;;;;;;4971528;28;20210;-44
2022/01/29 06:34:05;;;;;;;17.40;12.50;;;8.60;57.60;;;;;;4969147;28;20663;-44
2022/01/29 06:36:30;;;;;;;17.33;12.43;;;8.70;58.00;;;;;;4970363;28;20199;-44
2022/01/29 06:38:56;;;;;;;20.07;13.60;;;8.70;57.30;;;;;;4965817;28;20566;-44
2022/01/29 06:41:22;;;;;;;19.17;12.73;;;8.70;57.80;;;;;;4972402;28;20772;-44
2022/01/29 06:43:47;;;;;;;15.13;11.83;;;8.60;57.80;;;;;;4969772;28;20192;-45
2022/01/29 06:46:13;;;;;;;15.97;12.60;;;8.70;57.70;;;;;;4973138;28;20200;-44
2022/01/29 06:48:39;;;;;;;19.57;13.27;;;8.80;57.60;;;;;;4973865;28;20196;-44
2022/01/29 06:51:04;;;;;;;17.33;11.57;;;9.00;58.20;;;;;;4979600;28;20199;-44
2022/01/29 06:53:30;;;;;;;16.03;12.97;;;9.20;57.30;;;;;;4972048;28;20202;-44
2022/01/29 06:55:56;;;;;;;17.53;13.40;;;9.20;56.10;;;;;;4975291;28;20625;-44
2022/01/29 06:58:21;;;;;;;20.40;12.33;;;9.20;56.10;;;;;;4968466;28;20246;-44
2022/01/29 07:00:47;;;;;;;16.00;13.00;;;9.20;56.20;;;;;;4976657;28;20203;-44
2022/01/29 07:03:12;;;;;;;16.10;11.87;;;9.30;56.70;;;;;;4970817;28;20202;-44
2022/01/29 07:05:39;;;;;;;16.77;12.57;;;9.40;56.10;;;;;;4977800;28;20203;-44
2022/01/29 07:08:04;;;;;;;18.03;12.17;;;9.20;55.90;;;;;;4973607;28;20266;-44
2022/01/29 07:10:30;;;;;;;14.83;12.63;;;9.20;55.80;;;;;;4973230;28;20470;-44
2022/01/29 07:12:55;;;;;;;13.63;11.03;;;9.20;56.00;;;;;;4979733;28;20643;-44
2022/01/29 07:15:21;;;;;;;17.33;13.13;;;9.40;56.00;;;;;;4977443;28;20230;-45
2022/01/29 07:17:47;;;;;;;19.60;14.80;;;9.50;55.80;;;;;;4973077;28;20192;-44
2022/01/29 07:20:12;;;;;;;21.50;14.80;;;9.70;55.80;;;;;;4970907;28;20207;-44
2022/01/29 07:22:39;;;;;;;16.27;12.43;;;10.00;54.80;;;;;;4973220;28;20230;-45
2022/01/29 07:25:06;;;;;;;16.43;12.30;;;10.20;54.30;;;;;;4972882;28;20210;-46
2022/01/29 07:27:31;;;;;;;15.40;11.77;;;10.30;53.80;;;;;;4971103;28;20490;-44
2022/01/29 07:29:57;;;;;;;16.17;12.10;;;10.40;53.50;;;;;;4975445;28;20426;-45
2022/01/29 07:32:23;;;;;;;16.80;11.70;;;10.50;53.10;;;;;;4970993;28;20191;-45
2022/01/29 07:34:48;;;;;;;16.00;12.73;;;10.50;53.10;;;;;;4974647;28;20225;-44
2022/01/29 07:37:14;;;;;;;18.10;12.43;;;10.60;53.40;;;;;;4971459;28;20245;-44
2022/01/29 07:39:39;;;;;;;19.30;12.50;;;10.60;52.80;;;;;;4972397;28;20195;-44
2022/01/29 07:42:05;;;;;;;15.27;12.10;;;10.70;52.70;;;;;;4978684;28;20235;-46
2022/01/29 07:44:31;;;;;;;18.57;13.13;;;10.70;52.10;;;;;;4973916;28;20561;-45
2022/01/29 07:46:58;;;;;;;14.30;12.80;;;10.70;52.30;;;;;;4971573;28;20443;-45
2022/01/29 07:49:23;;;;;;;19.10;13.60;;;10.80;52.40;;;;;;4972196;28;20192;-45
2022/01/29 07:51:49;;;;;;;14.97;11.23;;;10.90;52.10;;;;;;4972399;28;20505;-47
2022/01/29 07:54:15;;;;;;;19.17;11.90;;;10.90;51.70;;;;;;4972106;28;20198;-46
2022/01/29 07:56:40;;;;;;;11.33;10.20;;;10.90;51.70;;;;;;4971479;28;20285;-45
2022/01/29 07:59:06;;;;;;;16.73;11.77;;;11.00;51.70;;;;;;4969937;28;20578;-45
2022/01/29 08:01:32;;;;;;;16.20;11.50;;;11.00;51.70;;;;;;4971033;28;20191;-46
2022/01/29 08:03:57;;;;;;;15.13;11.00;;;11.00;51.70;;;;;;4971943;28;20559;-46
2022/01/29 08:06:23;;;;;;;13.57;10.20;;;11.00;51.60;;;;;;4972127;28;20209;-44
2022/01/29 08:08:50;;;;;;;17.27;13.27;;;11.00;51.70;;;;;;4973415;28;20198;-44
2022/01/29 08:11:17;;;;;;;15.43;10.70;;;11.10;51.60;;;;;;4973703;28;20449;-44
2022/01/29 08:13:43;;;;;;;12.07;9.10;;;11.10;51.70;;;;;;4972063;28;20438;-44
2022/01/29 08:16:09;;;;;;;12.13;9.73;;;11.10;51.60;;;;;;4973774;28;20848;-45
2022/01/29 08:18:35;;;;;;;11.57;9.27;;;10.90;51.10;;;;;;4969936;28;20426;-44
2022/01/29 08:21:00;;;;;;;11.83;8.50;;;10.60;51.50;;;;;;4974274;28;20442;-44
2022/01/29 08:23:26;;;;;;;12.80;7.90;;;10.60;51.30;;;;;;4977480;28;20700;-45
2022/01/29 08:25:52;;;;;;;9.90;7.30;;;10.30;50.90;;;;;;4970042;28;20203;-44
2022/01/29 08:28:17;;;;;;;8.10;6.63;;;10.30;51.60;;;;;;4971277;28;20202;-44
2022/01/29 08:30:43;;;;;;;6.80;6.13;;;10.40;51.90;;;;;;4968740;28;20199;-44
2022/01/29 08:33:11;;;;;;;10.10;7.60;;;10.70;51.70;;;;;;4970958;28;20206;-45
2022/01/29 08:35:37;;;;;;;7.07;6.30;;;10.90;50.70;;;;;;4971119;28;20600;-44
2022/01/29 08:38:03;;;;;;;6.93;5.03;;;11.10;50.50;;;;;;4976758;28;20439;-43
2022/01/29 08:40:28;;;;;;;5.63;4.97;;;11.20;50.50;;;;;;4968261;28;20897;-44
2022/01/29 08:42:54;;;;;;;5.20;3.80;;;11.20;49.60;;;;;;4968852;28;20447;-44
2022/01/29 08:45:20;;;;;;;5.33;4.10;;;11.30;49.50;;;;;;4976385;28;20234;-44
2022/01/29 08:47:46;;;;;;;6.00;4.00;;;11.30;49.10;;;;;;4970085;28;20195;-44
2022/01/29 08:50:12;;;;;;;6.70;4.33;;;11.00;48.30;;;;;;4970080;28;20445;-45
2022/01/29 08:52:39;;;;;;;3.90;3.43;;;11.00;49.10;;;;;;4973286;28;20655;-44
2022/01/29 08:55:07;;;;;;;3.30;2.40;;;10.80;48.60;;;;;;4970081;28;20501;-44
2022/01/29 08:57:33;;;;;;;3.73;3.33;;;10.70;48.60;;;;;;4971915;28;20839;-45
2022/01/29 09:00:00;;;;;;;3.60;3.00;;;10.60;48.70;;;;;;4973972;28;20955;-44
2022/01/29 09:02:26;;;;;;;4.10;3.30;;;10.40;48.60;;;;;;4972709;28;20503;-44
2022/01/29 09:04:54;;;;;;;2.97;2.73;;;10.50;49.30;;;;;;4973832;28;20465;-44
2022/01/29 09:07:20;;;;;;;3.63;3.10;;;10.50;49.00;;;;;;4974251;28;20438;-44
2022/01/29 09:09:46;;;;;;;5.63;3.00;;;10.50;49.60;;;;;;4974264;28;21001;-46
2022/01/29 09:12:12;;;;;;;3.40;3.03;;;10.50;48.70;;;;;;4987176;28;20202;-44
2022/01/29 09:14:38;;;;;;;5.60;3.20;;;10.40;49.20;;;;;;4967984;28;20478;-43
2022/01/29 09:17:04;;;;;;;3.17;2.80;;;10.60;49.20;;;;;;4977800;28;20446;-43
2022/01/29 09:19:30;;;;;;;3.40;3.10;;;10.60;48.70;;;;;;4977362;28;20445;-44
2022/01/29 09:21:55;;;;;;;2.97;2.67;;;10.50;49.00;;;;;;4971454;28;20536;-45
2022/01/29 09:24:21;;;;;;;4.97;3.33;;;10.50;49.20;;;;;;4974132;28;20199;-42
2022/01/29 09:26:47;;;;;;;4.37;3.37;;;10.60;49.00;;;;;;4976136;28;20202;-42
2022/01/29 09:29:12;;;;;;;3.47;3.17;;;10.50;48.90;;;;;;4979116;28;20203;-42
2022/01/29 09:31:38;;;;;;;5.40;3.43;;;10.40;49.10;;;;;;4974976;28;20203;-42
2022/01/29 09:34:03;;;;;;;4.90;3.40;;;10.40;49.30;;;;;;4972582;28;20207;-43
2022/01/29 09:36:29;;;;;;;4.70;3.50;;;10.10;49.20;;;;;;4976251;28;20280;-42
2022/01/29 09:38:55;;;;;;;6.30;4.97;;;10.00;49.60;;;;;;4976066;28;20206;-42
2022/01/29 09:41:25;;;;;;;4.93;3.53;;;9.80;50.90;;;;;;4973635;28;20479;-43
2022/01/29 09:43:55;;;;;;;5.77;3.50;;;9.90;51.00;;;;;;4972325;28;20195;-42
2022/01/29 09:46:21;;;;;;;8.73;4.70;;;9.80;51.30;;;;;;4970427;28;20471;-42
2022/01/29 09:48:47;;;;;;;6.97;3.60;;;9.60;51.30;;;;;;4979611;28;20435;-42
2022/01/29 09:51:13;;;;;;;4.83;3.83;;;9.50;51.80;;;;;;4982734;28;20445;-42
2022/01/29 09:53:45;;;;;;;5.20;3.97;;;9.60;52.10;;;;;;4976440;28;20667;-42
2022/01/29 09:56:15;;;;;;;4.53;3.13;;;9.50;52.20;;;;;;4975091;28;20521;-42
2022/01/29 09:58:42;;;;;;;6.50;3.63;;;9.70;52.10;;;;;;4972980;28;20459;-42
2022/01/29 10:01:08;;;;;;;5.67;3.87;;;9.80;51.90;;;;;;4974617;28;20922;-42
2022/01/29 10:03:34;;;;;;;8.70;4.57;;;10.10;50.70;;;;;;4974410;28;20938;-42
2022/01/29 10:06:01;;;;;;;5.20;3.87;;;10.20;50.80;;;;;;4974743;28;20454;-42
2022/01/29 10:08:27;;;;;;;9.27;6.43;;;10.00;50.60;;;;;;4972708;28;20431;-42
2022/01/29 10:10:58;;;;;;;7.17;5.27;;;10.10;51.10;;;;;;4974384;28;20798;-42
2022/01/29 10:13:28;;;;;;;6.63;4.33;;;10.10;51.20;;;;;;4973666;28;20446;-42
2022/01/29 10:16:12;;;;;;;4.70;3.90;;;10.10;50.60;;;;;;4975815;28;20486;-44
2022/01/29 10:18:43;;;;;;;4.90;3.73;;;10.20;50.80;;;;;;4971281;28;20525;-42
2022/01/29 10:21:16;;;;;;;6.67;4.53;;;10.10;50.80;;;;;;4973855;28;20451;-42
2022/01/29 10:23:44;;;;;;;4.07;3.50;;;10.30;51.20;;;;;;4966819;28;20462;-42
2022/01/29 10:26:10;;;;;;;5.37;3.63;;;10.40;50.80;;;;;;4974244;28;20434;-42
2022/01/29 10:28:37;;;;;;;3.93;3.33;;;10.70;50.80;;;;;;4973060;28;20450;-42
2022/01/29 10:31:07;;;;;;;5.33;3.70;;;10.70;50.60;;;;;;4973561;28;20792;-42
2022/01/29 10:33:41;;;;;;;4.43;3.30;;;10.40;51.10;;;;;;4973296;28;20427;-42
2022/01/29 10:36:09;;;;;;;4.67;4.00;;;10.60;51.20;;;;;;4973915;28;20501;-43
2022/01/29 10:38:41;;;;;;;8.53;3.53;;;10.70;50.90;;;;;;4973029;28;20450;-43
2022/01/29 10:41:23;;;;;;;5.07;3.57;;;10.90;50.90;;;;;;4979487;28;20474;-42
2022/01/29 10:43:55;;;;;;;4.23;3.50;;;10.80;51.70;;;;;;4973420;28;20565;-42
2022/01/29 10:46:31;;;;;;;4.57;4.17;;;10.90;51.20;;;;;;4966936;28;20454;-42
2022/01/29 10:48:58;;;;;;;6.47;2.90;;;10.70;51.40;;;;;;4973030;28;20465;-42
2022/01/29 10:51:24;;;;;;;3.90;3.50;;;10.60;51.70;;;;;;4971138;28;20922;-43
2022/01/29 10:53:53;;;;;;;4.40;3.30;;;10.80;51.70;;;;;;4973664;28;20502;-42
2022/01/29 10:56:18;;;;;;;4.67;3.40;;;11.00;51.20;;;;;;4973294;28;20235;-42
2022/01/29 10:58:46;;;;;;;7.30;3.87;;;10.90;51.10;;;;;;4972101;28;20493;-42
2022/01/29 11:01:20;;;;;;;5.20;3.13;;;11.10;51.50;;;;;;4972691;28;20501;-43
2022/01/29 11:03:46;;;;;;;5.57;3.33;;;10.80;51.80;;;;;;4970325;28;20433;-43
2022/01/29 11:06:20;;;;;;;4.33;3.93;;;10.90;52.30;;;;;;4971984;28;20431;-43
2022/01/29 11:08:47;;;;;;;4.87;3.10;;;10.80;52.80;;;;;;4971945;28;20453;-44
2022/01/29 11:11:14;;;;;;;4.67;3.40;;;10.80;53.30;;;;;;4972910;28;20446;-43
2022/01/29 11:13:42;;;;;;;4.30;3.47;;;10.80;53.30;;;;;;4971059;28;20442;-43
2022/01/29 11:16:09;;;;;;;4.50;3.93;;;10.80;53.40;;;;;;4973139;28;20644;-43
2022/01/29 11:18:35;;;;;;;6.07;4.67;;;10.70;53.40;;;;;;4971271;28;20438;-43
2022/01/29 11:21:02;;;;;;;4.30;3.13;;;10.60;53.70;;;;;;4971166;28;20518;-43
2022/01/29 11:23:29;;;;;;;8.00;3.43;;;10.60;53.80;;;;;;4963349;28;20504;-43
2022/01/29 11:25:56;;;;;;;4.80;3.50;;;10.70;53.80;;;;;;4973375;28;20534;-44
2022/01/29 11:28:26;;;;;;;5.17;3.37;;;10.90;54.00;;;;;;4971048;28;20430;-43
2022/01/29 11:31:10;;;;;;;4.00;3.60;;;10.90;53.70;;;;;;4969823;28;20854;-43
2022/01/29 11:34:13;;;;;;;3.63;2.70;;;10.60;54.40;;;;;;4968110;28;20486;-43
2022/01/29 11:36:48;;;;;;;3.30;2.23;;;10.50;55.40;;;;;;4969821;28;20557;-43
2022/01/29 11:39:25;;;;;;;3.37;2.83;;;10.70;55.60;;;;;;4972088;28;20446;-44
2022/01/29 11:42:12;;;;;;;3.13;2.63;;;10.80;55.50;;;;;;4966349;28;20512;-43
2022/01/29 11:44:39;;;;;;;2.73;2.50;;;10.80;55.40;;;;;;4971604;28;20446;-43
2022/01/29 11:47:24;;;;;;;2.67;2.07;;;10.50;55.40;;;;;;4964196;28;20450;-43
2022/01/29 11:49:50;;;;;;;3.80;2.00;;;10.60;55.70;;;;;;4968773;28;20446;-43
2022/01/29 11:52:24;;;;;;;2.00;1.80;;;10.40;55.90;;;;;;4971361;28;20524;-43
2022/01/29 11:55:03;;;;;;;3.17;1.90;;;10.40;56.20;;;;;;4965812;28;20485;-43
2022/01/29 11:57:29;;;;;;;2.27;1.90;;;10.60;56.40;;;;;;4971955;28;20441;-43
2022/01/29 11:59:54;;;;;;;2.10;1.57;;;10.80;56.00;;;;;;4972109;28;20451;-43
2022/01/29 12:02:36;;;;;;;2.90;1.93;;;11.00;55.30;;;;;;4971999;28;20654;-43
2022/01/29 12:05:06;;;;;;;2.50;1.97;;;11.00;55.40;;;;;;4973526;28;20569;-43
2022/01/29 12:07:36;;;;;;;5.50;1.93;;;10.90;55.70;;;;;;4970543;28;20501;-43
2022/01/29 12:10:05;;;;;;;2.73;2.00;;;11.10;56.00;;;;;;4971303;28;20450;-43
2022/01/29 12:12:33;;;;;;;3.37;2.13;;;11.20;55.60;;;;;;4969226;28;20462;-44
2022/01/29 12:15:11;;;;;;;4.33;2.73;;;11.20;55.70;;;;;;4974243;28;20954;-44
2022/01/29 12:17:59;;;;;;;3.70;2.00;;;11.00;55.70;;;;;;4970551;28;20446;-43
2022/01/29 12:20:26;;;;;;;6.27;3.20;;;10.90;56.10;;;;;;4968906;28;20497;-43
2022/01/29 12:23:05;;;;;;;7.17;3.63;;;10.90;56.60;;;;;;4970507;28;20438;-43
2022/01/29 12:25:30;;;;;;;10.90;4.13;;;10.90;56.90;;;;;;4972136;28;20817;-43
2022/01/29 12:27:59;;;;;;;9.17;4.43;;;10.90;56.80;;;;;;4980250;28;20459;-43
2022/01/29 12:30:33;;;;;;;6.53;4.00;;;11.00;56.80;;;;;;4971461;28;20643;-43
2022/01/29 12:33:05;;;;;;;2.10;1.90;;;11.10;56.70;;;;;;4971483;28;21277;-43
2022/01/29 12:35:54;;;;;;;3.40;2.23;;;11.20;56.30;;;;;;4974902;28;20498;-43
2022/01/29 12:38:29;;;;;;;2.53;2.10;;;11.30;55.80;;;;;;4973245;28;20458;-44
2022/01/29 12:40:57;;;;;;;5.13;2.50;;;11.30;55.60;;;;;;4976783;28;20573;-44
2022/01/29 12:43:36;;;;;;;5.27;2.50;;;11.20;55.50;;;;;;4973408;28;20444;-43
2022/01/29 12:46:10;;;;;;;3.17;2.30;;;11.30;55.70;;;;;;4979032;28;20533;-43
2022/01/29 12:48:38;;;;;;;2.33;1.70;;;11.10;55.80;;;;;;4973304;28;20481;-43
2022/01/29 12:51:06;;;;;;;3.53;2.40;;;11.00;56.30;;;;;;4974760;28;20446;-43
2022/01/29 12:53:32;;;;;;;3.77;2.17;;;11.00;56.70;;;;;;4977997;28;21132;-43
2022/01/29 12:56:07;;;;;;;3.13;2.83;;;11.00;56.60;;;;;;4967798;28;20486;-43
2022/01/29 12:58:36;;;;;;;2.03;1.80;;;11.10;56.60;;;;;;4979574;28;20460;-43
2022/01/29 13:01:07;;;;;;;2.10;1.90;;;11.10;56.50;;;;;;4975450;28;20788;-43